WXM80 ListenWXM80 Stop

You find our weather info also at:

UK Metoffice

WeatherCloud

Weather Underground

Northeastern Weather Network

AWEKAS

Citizen Weather Observer Program (CWOP)

HAMweather, WeatherForYou, PWS Weather


Weather Underground History page Text

Daily Summary for August 5, 2016 Units:  English    Metric   Both
« Previous Day
Next Day »
Daily Weekly Monthly Yearly Custom
  High: Low: Average:
Temperature: 87.2 °F 62.0 °F 74.5 °F
Dew Point: 71.9 °F 59.8 °F 64.9 °F
Humidity: 97 % 51 % 74 %
Wind Speed: 6.3 mph 0.0 mph 1.2 mph
Wind Gust: 11.5 mph - -
Wind:- - SSW
Pressure: 30.06 in 29.83 in -
Precipitation: 0.00 in    
Historical Graphs
 
 
Tabular Data for August 5, 2016
Time Temperature Dew Point Pressure Wind Wind Speed Wind Gust Humidity Rainfall Rate (Hourly)
00:01 67.7 °F 62.0 °F 30.06 in Calm     82 % 0.00 in
00:06 67.6 °F 62.3 °F 30.06 in Calm     83 % 0.00 in
00:11 67.5 °F 62.2 °F 30.06 in Calm     83 % 0.00 in
00:16 67.4 °F 62.1 °F 30.05 in Calm     83 % 0.00 in
00:21 67.3 °F 62.0 °F 30.06 in Calm     83 % 0.00 in
00:26 67.1 °F 61.8 °F 30.06 in Calm     83 % 0.00 in
00:31 67.0 °F 62.0 °F 30.06 in Calm     84 % 0.00 in
00:36 66.8 °F 61.8 °F 30.06 in Calm     84 % 0.00 in
00:41 66.7 °F 62.0 °F 30.06 in Calm     85 % 0.00 in
00:46 66.5 °F 61.8 °F 30.06 in Calm     85 % 0.00 in
00:52 66.3 °F 61.7 °F 30.05 in Calm     85 % 0.00 in
00:57 66.2 °F 61.9 °F 30.05 in Calm     86 % 0.00 in
01:02 66.0 °F 61.7 °F 30.05 in Calm     86 % 0.00 in
01:07 65.8 °F 61.5 °F 30.06 in Calm     86 % 0.00 in
01:12 65.7 °F 61.7 °F 30.05 in Calm     87 % 0.00 in
01:17 65.5 °F 61.5 °F 30.05 in Calm     87 % 0.00 in
01:22 65.4 °F 61.4 °F 30.05 in Calm     87 % 0.00 in
01:27 65.2 °F 61.2 °F 30.05 in Calm     87 % 0.00 in
01:32 65.1 °F 61.1 °F 30.05 in Calm     87 % 0.00 in
01:37 64.9 °F 61.3 °F 30.05 in Calm     88 % 0.00 in
01:43 64.8 °F 61.2 °F 30.05 in Calm     88 % 0.00 in
01:48 64.7 °F 61.1 °F 30.05 in Calm     88 % 0.00 in
01:53 64.5 °F 60.9 °F 30.05 in Calm     88 % 0.00 in
01:58 64.4 °F 61.1 °F 30.05 in Calm     89 % 0.00 in
02:03 64.3 °F 61.0 °F 30.05 in Calm     89 % 0.00 in
02:08 64.1 °F 60.8 °F 30.04 in Calm     89 % 0.00 in
02:13 64.0 °F 60.7 °F 30.04 in Calm     89 % 0.00 in
02:18 63.9 °F 60.6 °F 30.04 in Calm     89 % 0.00 in
02:23 63.8 °F 60.5 °F 30.04 in Calm     89 % 0.00 in
02:29 63.8 °F 60.8 °F 30.04 in Calm     90 % 0.00 in
02:34 63.7 °F 60.7 °F 30.05 in Calm     90 % 0.00 in
02:39 63.6 °F 60.6 °F 30.04 in Calm     90 % 0.00 in
02:44 63.5 °F 60.5 °F 30.04 in Calm     90 % 0.00 in
02:49 63.4 °F 60.4 °F 30.04 in Calm     90 % 0.00 in
02:54 63.3 °F 60.3 °F 30.04 in Calm     90 % 0.00 in
02:59 63.2 °F 60.2 °F 30.04 in Calm     90 % 0.00 in
03:04 63.2 °F 60.2 °F 30.04 in Calm     90 % 0.00 in
03:09 63.1 °F 60.1 °F 30.04 in Calm     90 % 0.00 in
03:14 63.1 °F 60.1 °F 30.03 in Calm     90 % 0.00 in
03:20 63.0 °F 60.0 °F 30.04 in Calm     90 % 0.00 in
03:25 62.9 °F 60.2 °F 30.03 in Calm     91 % 0.00 in
03:30 62.9 °F 60.2 °F 30.03 in Calm     91 % 0.00 in
03:35 62.9 °F 60.2 °F 30.03 in Calm     91 % 0.00 in
03:40 62.9 °F 60.2 °F 30.03 in Calm     91 % 0.00 in
03:45 62.8 °F 60.4 °F 30.03 in Calm     92 % 0.00 in
03:50 62.8 °F 60.4 °F 30.03 in Calm     92 % 0.00 in
03:55 62.8 °F 60.4 °F 30.03 in Calm     92 % 0.00 in
04:00 62.7 °F 60.3 °F 30.03 in Calm     92 % 0.00 in
04:05 62.7 °F 60.3 °F 30.03 in Calm     92 % 0.00 in
04:11 62.6 °F 60.2 °F 30.03 in Calm     92 % 0.00 in
04:16 62.6 °F 60.2 °F 30.03 in Calm     92 % 0.00 in
04:21 62.5 °F 60.2 °F 30.02 in Calm     92 % 0.00 in
04:26 62.5 °F 60.1 °F 30.02 in Calm     92 % 0.00 in
04:31 62.4 °F 60.1 °F 30.02 in Calm     92 % 0.00 in
04:36 62.4 °F 60.0 °F 30.02 in Calm     92 % 0.00 in
04:41 62.3 °F 59.9 °F 30.02 in Calm     92 % 0.00 in
04:46 62.3 °F 59.9 °F 30.02 in Calm     92 % 0.00 in
04:51 62.2 °F 59.9 °F 30.02 in Calm     92 % 0.00 in
04:56 62.2 °F 59.8 °F 30.02 in Calm     92 % 0.00 in
05:01 62.2 °F 60.2 °F 30.03 in Calm     93 % 0.00 in
05:06 62.2 °F 60.2 °F 30.03 in Calm     93 % 0.00 in
05:11 62.1 °F 60.1 °F 30.03 in Calm     93 % 0.00 in
05:16 62.1 °F 60.1 °F 30.03 in Calm     93 % 0.00 in
05:21 62.1 °F 60.1 °F 30.03 in Calm     93 % 0.00 in
05:26 62.1 °F 60.1 °F 30.03 in Calm     93 % 0.00 in
05:31 62.1 °F 60.4 °F 30.03 in Calm     94 % 0.00 in
05:36 62.1 °F 60.4 °F 30.03 in Calm     94 % 0.00 in
05:42 62.1 °F 60.4 °F 30.03 in Calm     94 % 0.00 in
05:47 62.1 °F 60.4 °F 30.03 in Calm     94 % 0.00 in
05:52 62.1 °F 60.4 °F 30.04 in Calm     94 % 0.00 in
05:57 62.0 °F 60.3 °F 30.03 in Calm     94 % 0.00 in
06:02 62.0 °F 60.3 °F 30.04 in Calm     94 % 0.00 in
06:07 62.0 °F 60.3 °F 30.03 in Calm     94 % 0.00 in
06:12 62.0 °F 60.3 °F 30.03 in Calm     94 % 0.00 in
06:17 62.1 °F 60.4 °F 30.03 in Calm     94 % 0.00 in
06:22 62.1 °F 60.4 °F 30.03 in Calm     94 % 0.00 in
06:33 62.2 °F 60.8 °F 30.04 in Calm     95 % 0.00 in
06:38 62.4 °F 60.9 °F 30.04 in Calm   1.2 mph 95 % 0.00 in
06:43 62.6 °F 61.1 °F 30.04 in Calm     95 % 0.00 in
06:48 62.8 °F 61.3 °F 30.04 in Calm     95 % 0.00 in
06:53 63.1 °F 61.9 °F 30.04 in Calm     96 % 0.00 in
06:58 63.3 °F 62.1 °F 30.04 in WSW 0.5 mph 2.3 mph 96 % 0.00 in
07:03 63.6 °F 62.4 °F 30.04 in Calm   1.2 mph 96 % 0.00 in
07:08 64.1 °F 63.2 °F 30.04 in Calm     97 % 0.00 in
07:13 64.6 °F 63.7 °F 30.04 in WSW 0.1 mph   97 % 0.00 in
07:18 65.0 °F 64.1 °F 30.04 in Calm     97 % 0.00 in
07:24 65.5 °F 64.3 °F 30.04 in WSW 0.8 mph 1.2 mph 96 % 0.00 in
07:29 65.9 °F 64.4 °F 30.03 in WSW 0.1 mph 1.2 mph 95 % 0.00 in
07:34 66.4 °F 64.6 °F 30.03 in Calm   1.2 mph 94 % 0.00 in
07:39 66.8 °F 64.4 °F 30.03 in SW 1.0 mph 3.5 mph 92 % 0.00 in
07:44 67.2 °F 64.5 °F 30.04 in SW 0.8 mph 2.3 mph 91 % 0.00 in
07:49 67.6 °F 64.6 °F 30.03 in SW 0.5 mph 1.2 mph 90 % 0.00 in
07:54 67.9 °F 64.5 °F 30.04 in Calm   1.2 mph 89 % 0.00 in
08:09 68.8 °F 64.8 °F 30.03 in WNW 1.6 mph 3.0 mph 87 % 0.00 in
08:15 69.1 °F 64.7 °F 30.04 in SW 1.4 mph 1.4 mph 86 % 0.00 in
08:20 69.4 °F 64.7 °F 30.04 in SW 2.9 mph 3.5 mph 85 % 0.00 in
08:25 69.7 °F 64.6 °F 30.03 in SW 0.1 mph 1.0 mph 84 % 0.00 in
08:30 70.0 °F 65.3 °F 30.03 in SW 0.6 mph 2.3 mph 85 % 0.00 in
08:35 70.2 °F 64.8 °F 30.03 in SW 1.4 mph 4.0 mph 83 % 0.00 in
08:40 70.5 °F 65.1 °F 30.03 in WNW 1.4 mph 3.0 mph 83 % 0.00 in
08:45 70.8 °F 65.0 °F 30.03 in NW 1.1 mph 3.0 mph 82 % 0.00 in
08:50 71.1 °F 65.0 °F 30.03 in WSW 1.4 mph 2.3 mph 81 % 0.00 in
08:55 71.3 °F 65.2 °F 30.03 in WSW 1.7 mph 3.5 mph 81 % 0.00 in
09:01 71.6 °F 65.1 °F 30.03 in WNW 2.5 mph 3.5 mph 80 % 0.00 in
09:06 71.9 °F 65.0 °F 30.02 in WSW 1.0 mph 6.0 mph 79 % 0.00 in
09:11 72.2 °F 65.3 °F 30.02 in West 1.0 mph 4.0 mph 79 % 0.00 in
09:16 72.5 °F 65.6 °F 30.02 in WNW 2.0 mph 5.0 mph 79 % 0.00 in
09:21 72.7 °F 65.5 °F 30.02 in WSW 1.0 mph 5.0 mph 78 % 0.00 in
09:26 73.0 °F 65.4 °F 30.02 in WSW 3.0 mph 6.0 mph 77 % 0.00 in
09:31 73.3 °F 65.6 °F 30.02 in WSW 3.0 mph 8.0 mph 77 % 0.00 in
09:36 73.5 °F 65.5 °F 30.02 in Calm   7.0 mph 76 % 0.00 in
09:41 73.8 °F 66.9 °F 30.01 in WSW 1.0 mph 4.0 mph 79 % 0.00 in
09:46 74.1 °F 67.1 °F 30.01 in Calm   2.0 mph 79 % 0.00 in
09:51 74.4 °F 66.3 °F 30.02 in WSW 3.0 mph 6.0 mph 76 % 0.00 in
09:56 74.9 °F 66.5 °F 30.01 in WSW 3.0 mph 6.0 mph 75 % 0.00 in
10:01 75.5 °F 66.6 °F 30.01 in WSW 3.2 mph 3.5 mph 74 % 0.00 in
10:06 76.2 °F 67.3 °F 30.01 in SW 5.0 mph 6.0 mph 74 % 0.00 in
10:11 76.9 °F 67.6 °F 30.01 in WSW 1.0 mph 7.0 mph 73 % 0.00 in
10:16 77.9 °F 68.9 °F 30.01 in West 3.0 mph 7.0 mph 74 % 0.00 in
10:21 78.6 °F 68.4 °F 30.00 in West 1.0 mph 5.0 mph 71 % 0.00 in
10:26 79.3 °F 68.2 °F 30.01 in WNW 3.0 mph 5.0 mph 69 % 0.00 in
10:31 80.0 °F 69.7 °F 30.00 in NNW 2.2 mph 4.0 mph 71 % 0.00 in
10:36 80.5 °F 69.0 °F 30.00 in WNW 1.0 mph 5.0 mph 68 % 0.00 in
10:41 81.2 °F 69.7 °F 29.99 in West 2.0 mph 4.0 mph 68 % 0.00 in
10:46 81.7 °F 68.3 °F 29.99 in West 2.0 mph 4.0 mph 64 % 0.00 in
10:51 82.1 °F 68.7 °F 29.99 in WSW 2.0 mph 7.0 mph 64 % 0.00 in
10:56 82.8 °F 69.8 °F 29.99 in West 1.0 mph 6.0 mph 65 % 0.00 in
11:01 83.2 °F 68.3 °F 29.99 in West 1.4 mph 3.5 mph 61 % 0.00 in
11:06 83.5 °F 69.1 °F 29.99 in WSW 1.0 mph 5.0 mph 62 % 0.00 in
11:11 83.9 °F 68.5 °F 29.99 in WSW 1.0 mph 5.0 mph 60 % 0.00 in
11:16 84.2 °F 68.8 °F 29.98 in WSW 1.0 mph 5.0 mph 60 % 0.00 in
11:21 84.7 °F 70.2 °F 29.98 in WSW 1.0 mph 3.0 mph 62 % 0.00 in
11:26 85.0 °F 70.5 °F 29.98 in NNW 3.0 mph 6.0 mph 62 % 0.00 in
11:31 85.5 °F 71.9 °F 29.98 in NNE 2.0 mph 6.0 mph 64 % 0.00 in
11:36 85.5 °F 70.5 °F 29.98 in North 2.0 mph 7.0 mph 61 % 0.00 in
11:41 85.4 °F 69.9 °F 29.98 in NNW 3.0 mph 5.0 mph 60 % 0.00 in
11:46 85.5 °F 70.5 °F 29.98 in North 5.0 mph 7.0 mph 61 % 0.00 in
11:51 85.7 °F 70.2 °F 29.98 in North 3.0 mph 6.0 mph 60 % 0.00 in
11:56 85.9 °F 69.9 °F 29.98 in North 2.0 mph 6.0 mph 59 % 0.00 in
12:01 85.9 °F 70.9 °F 29.98 in North 1.7 mph 6.0 mph 61 % 0.00 in
12:06 86.2 °F 70.2 °F 29.98 in North 1.0 mph 6.0 mph 59 % 0.00 in
12:11 86.3 °F 68.8 °F 29.98 in NW 2.0 mph 5.0 mph 56 % 0.00 in
12:16 86.2 °F 69.2 °F 29.98 in NW 3.0 mph 7.0 mph 57 % 0.00 in
12:21 86.4 °F 69.9 °F 29.98 in NNW 2.0 mph 5.0 mph 58 % 0.00 in
12:26 86.6 °F 71.0 °F 29.97 in NNW 5.0 mph 7.0 mph 60 % 0.00 in
12:31 86.2 °F 70.7 °F 29.97 in North 2.0 mph 8.0 mph 60 % 0.00 in
12:36 86.5 °F 70.5 °F 29.97 in North 2.0 mph 6.0 mph 59 % 0.00 in
12:41 86.8 °F 70.7 °F 29.97 in North 2.0 mph 5.0 mph 59 % 0.00 in
12:46 86.9 °F 70.8 °F 29.97 in North 3.0 mph 6.0 mph 59 % 0.00 in
12:51 87.0 °F 69.5 °F 29.97 in North 3.0 mph 6.0 mph 56 % 0.00 in
12:56 87.2 °F 70.1 °F 29.96 in North 2.0 mph 6.0 mph 57 % 0.00 in
13:01 87.2 °F 69.6 °F 29.96 in ENE 0.2 mph 2.3 mph 56 % 0.00 in
13:06 87.1 °F 69.0 °F 29.96 in ENE 1.0 mph 4.0 mph 55 % 0.00 in
13:11 86.9 °F 69.8 °F 29.96 in North 2.0 mph 6.0 mph 57 % 0.00 in
13:16 86.8 °F 69.2 °F 29.96 in North 2.0 mph 5.0 mph 56 % 0.00 in
13:20 86.2 °F 68.1 °F 29.95 in North 1.6 mph 3.5 mph 55 % 0.00 in
13:26 85.4 °F 68.9 °F 29.96 in North 1.0 mph 2.0 mph 58 % 0.00 in
13:31 84.7 °F 68.3 °F 29.95 in NE 1.0 mph 3.0 mph 58 % 0.00 in
13:35 84.9 °F 70.4 °F 29.95 in ENE 0.8 mph 2.3 mph 62 % 0.00 in
13:41 84.9 °F 69.5 °F 29.95 in Calm   2.0 mph 60 % 0.00 in
13:46 85.3 °F 70.8 °F 29.95 in Calm   4.0 mph 62 % 0.00 in
13:50 85.8 °F 70.3 °F 29.94 in SSE 0.2 mph 2.0 mph 60 % 0.00 in
13:56 85.9 °F 68.9 °F 29.94 in SE 1.0 mph 3.0 mph 57 % 0.00 in
14:01 86.0 °F 70.5 °F 29.94 in North 3.8 mph 9.2 mph 60 % 0.00 in
14:06 85.9 °F 68.9 °F 29.94 in NNE 0.2 mph 1.2 mph 57 % 0.00 in
14:11 85.7 °F 66.0 °F 29.94 in East 3.6 mph 6.9 mph 52 % 0.00 in
14:16 85.0 °F 67.0 °F 29.94 in SSW 2.8 mph 4.6 mph 55 % 0.00 in
14:21 84.8 °F 67.4 °F 29.94 in SSW 1.9 mph 5.8 mph 56 % 0.00 in
14:26 85.1 °F 67.6 °F 29.93 in SSW 2.2 mph 6.0 mph 56 % 0.00 in
14:31 85.6 °F 67.0 °F 29.94 in SSE 3.4 mph 11.5 mph 54 % 0.00 in
14:36 85.6 °F 67.0 °F 29.94 in SSW 2.1 mph 3.5 mph 54 % 0.00 in
14:41 85.8 °F 68.8 °F 29.93 in WSW 1.3 mph 4.6 mph 57 % 0.00 in
14:46 86.3 °F 68.2 °F 29.93 in SW 3.2 mph 6.0 mph 55 % 0.00 in
14:52 86.5 °F 66.8 °F 29.93 in WSW 1.8 mph 5.8 mph 52 % 0.00 in
14:57 86.3 °F 67.2 °F 29.93 in WSW 6.3 mph 10.4 mph 53 % 0.00 in
15:02 86.3 °F 67.2 °F 29.93 in SSW 3.8 mph 5.0 mph 53 % 0.00 in
15:07 86.3 °F 67.7 °F 29.93 in SW 1.8 mph 3.5 mph 54 % 0.00 in
15:12 86.3 °F 67.7 °F 29.92 in SSW 4.8 mph 6.9 mph 54 % 0.00 in
15:17 86.4 °F 67.2 °F 29.92 in WSW 1.1 mph 3.5 mph 53 % 0.00 in
15:22 86.3 °F 66.0 °F 29.92 in SSE 2.3 mph 3.5 mph 51 % 0.00 in
15:27 86.1 °F 67.0 °F 29.92 in South 0.9 mph 3.5 mph 53 % 0.00 in
15:32 86.3 °F 68.2 °F 29.92 in SW 4.0 mph 4.0 mph 55 % 0.00 in
15:37 86.2 °F 66.5 °F 29.92 in SSE 5.3 mph 6.0 mph 52 % 0.00 in
15:43 85.9 °F 66.8 °F 29.92 in South 3.0 mph 9.2 mph 53 % 0.00 in
15:48 85.9 °F 67.9 °F 29.92 in WSW 5.4 mph 8.1 mph 55 % 0.00 in
15:53 86.2 °F 67.1 °F 29.92 in WSW 4.3 mph 9.0 mph 53 % 0.00 in
15:58 86.4 °F 67.8 °F 29.91 in SE 1.2 mph 4.0 mph 54 % 0.00 in
16:03 86.5 °F 67.9 °F 29.91 in SW 3.2 mph 5.8 mph 54 % 0.00 in
16:08 86.6 °F 67.4 °F 29.91 in SE 1.7 mph 6.0 mph 53 % 0.00 in
16:13 85.9 °F 67.9 °F 29.91 in SW 3.9 mph 8.1 mph 55 % 0.00 in
16:18 85.6 °F 68.1 °F 29.91 in SSW 4.9 mph 7.0 mph 56 % 0.00 in
16:23 85.6 °F 68.1 °F 29.90 in South 1.6 mph 5.0 mph 56 % 0.00 in
16:28 85.6 °F 67.6 °F 29.90 in South 1.8 mph 3.5 mph 55 % 0.00 in
16:34 85.1 °F 67.1 °F 29.90 in South 1.5 mph 4.6 mph 55 % 0.00 in
16:39 84.8 °F 67.4 °F 29.89 in SE 1.7 mph 4.6 mph 56 % 0.00 in
16:44 84.2 °F 66.8 °F 29.89 in SE 1.0 mph 3.5 mph 56 % 0.00 in
16:49 83.8 °F 67.9 °F 29.89 in SSW 4.0 mph 8.1 mph 59 % 0.00 in
16:54 83.5 °F 66.7 °F 29.89 in SE 2.6 mph 11.5 mph 57 % 0.00 in
16:59 82.9 °F 66.1 °F 29.89 in South 1.4 mph 4.6 mph 57 % 0.00 in
17:04 82.6 °F 66.3 °F 29.89 in South 2.5 mph 5.8 mph 58 % 0.00 in
17:09 82.5 °F 66.2 °F 29.89 in SSE 2.0 mph 3.5 mph 58 % 0.00 in
17:14 82.4 °F 66.1 °F 29.88 in South 1.5 mph 3.5 mph 58 % 0.00 in
17:19 82.1 °F 66.4 °F 29.88 in SW 1.7 mph 4.0 mph 59 % 0.00 in
17:24 81.9 °F 65.2 °F 29.88 in South 3.3 mph 3.5 mph 57 % 0.00 in
17:30 81.7 °F 66.0 °F 29.88 in SE 1.8 mph 4.6 mph 59 % 0.00 in
17:35 81.7 °F 65.5 °F 29.88 in SE 0.8 mph 1.2 mph 58 % 0.00 in
17:40 81.5 °F 65.3 °F 29.87 in SE 1.7 mph 4.6 mph 58 % 0.00 in
17:45 81.4 °F 65.2 °F 29.87 in SSW 3.4 mph 5.8 mph 58 % 0.00 in
17:50 81.4 °F 65.7 °F 29.87 in WSW 1.3 mph 3.5 mph 59 % 0.00 in
17:55 81.3 °F 64.6 °F 29.87 in SSW 1.5 mph 4.0 mph 57 % 0.00 in
18:00 81.1 °F 65.4 °F 29.86 in SSW 3.1 mph 5.8 mph 59 % 0.00 in
18:05 81.0 °F 64.8 °F 29.86 in WSW 1.6 mph 5.8 mph 58 % 0.00 in
18:10 80.9 °F 64.7 °F 29.86 in South 2.2 mph 3.5 mph 58 % 0.00 in
18:15 80.4 °F 64.3 °F 29.86 in South 1.8 mph 5.8 mph 58 % 0.00 in
18:20 80.0 °F 64.9 °F 29.86 in SSE 2.0 mph 8.0 mph 60 % 0.00 in
18:30 79.7 °F 64.6 °F 29.86 in South 5.0 mph 8.0 mph 60 % 0.00 in
18:35 79.5 °F 64.4 °F 29.86 in Calm   7.0 mph 60 % 0.00 in
18:40 79.4 °F 65.2 °F 29.86 in SE 2.0 mph 4.0 mph 62 % 0.00 in
18:45 79.3 °F 65.1 °F 29.86 in South 1.0 mph 4.0 mph 62 % 0.00 in
18:51 79.1 °F 65.0 °F 29.86 in South 2.0 mph 5.0 mph 62 % 0.00 in
18:55 78.9 °F 64.8 °F 29.87 in South 2.0 mph 7.0 mph 62 % 0.00 in
19:01 78.8 °F 65.1 °F 29.86 in SSE 2.3 mph 3.5 mph 63 % 0.00 in
19:06 78.5 °F 64.9 °F 29.86 in SSW 1.0 mph 3.5 mph 63 % 0.00 in
19:11 78.2 °F 64.6 °F 29.87 in SSW 1.6 mph 3.5 mph 63 % 0.00 in
19:16 77.9 °F 64.7 °F 29.87 in SSW 2.0 mph 4.0 mph 64 % 0.00 in
19:21 77.5 °F 64.4 °F 29.87 in SW 1.5 mph 3.5 mph 64 % 0.00 in
19:26 77.3 °F 65.1 °F 29.87 in South 1.7 mph 3.0 mph 66 % 0.00 in
19:31 77.1 °F 65.3 °F 29.87 in SSE 0.8 mph 2.3 mph 67 % 0.00 in
19:36 76.8 °F 65.0 °F 29.86 in South 1.8 mph 3.5 mph 67 % 0.00 in
19:41 76.6 °F 64.8 °F 29.87 in SSE 2.0 mph 3.5 mph 67 % 0.00 in
19:47 76.4 °F 65.1 °F 29.87 in SSE 0.1 mph 1.2 mph 68 % 0.00 in
19:52 76.2 °F 64.9 °F 29.86 in SSE 1.5 mph 4.6 mph 68 % 0.00 in
19:57 76.0 °F 64.7 °F 29.86 in SE 2.0 mph 4.6 mph 68 % 0.00 in
20:02 75.8 °F 64.9 °F 29.86 in SSW 1.6 mph 3.5 mph 69 % 0.00 in
20:07 75.7 °F 64.8 °F 29.86 in South 1.5 mph 5.8 mph 69 % 0.00 in
20:12 75.5 °F 64.6 °F 29.86 in South 2.2 mph 4.6 mph 69 % 0.00 in
20:17 75.5 °F 64.6 °F 29.86 in NE 2.4 mph 5.8 mph 69 % 0.00 in
20:22 75.4 °F 64.5 °F 29.86 in SE 1.4 mph 4.0 mph 69 % 0.00 in
20:27 75.3 °F 64.4 °F 29.86 in SE 1.0 mph 6.0 mph 69 % 0.00 in
20:32 75.2 °F 64.3 °F 29.85 in SE 1.2 mph 3.5 mph 69 % 0.00 in
20:38 75.1 °F 64.2 °F 29.86 in East 0.5 mph 2.3 mph 69 % 0.00 in
20:43 75.0 °F 64.1 °F 29.86 in South 1.1 mph 5.8 mph 69 % 0.00 in
20:48 75.0 °F 64.1 °F 29.86 in South 1.7 mph 3.5 mph 69 % 0.00 in
20:53 74.9 °F 64.0 °F 29.86 in SSW 1.2 mph 2.3 mph 69 % 0.00 in
20:58 74.9 °F 64.0 °F 29.86 in South 1.0 mph 2.3 mph 69 % 0.00 in
21:03 74.9 °F 64.5 °F 29.86 in South 0.3 mph 3.5 mph 70 % 0.00 in
21:08 74.8 °F 64.4 °F 29.86 in SSW 1.3 mph 3.5 mph 70 % 0.00 in
21:13 74.8 °F 64.8 °F 29.86 in SSW 0.2 mph 1.0 mph 71 % 0.00 in
21:18 74.7 °F 64.7 °F 29.86 in South 0.8 mph 2.3 mph 71 % 0.00 in
21:23 74.7 °F 65.1 °F 29.86 in South 0.8 mph 3.5 mph 72 % 0.00 in
21:29 74.6 °F 65.4 °F 29.86 in SSW 2.0 mph 3.0 mph 73 % 0.00 in
21:34 74.6 °F 65.4 °F 29.86 in SSW 0.3 mph 3.5 mph 73 % 0.00 in
21:49 74.4 °F 65.6 °F 29.86 in South 0.4 mph 2.3 mph 74 % 0.00 in
21:54 74.4 °F 65.6 °F 29.86 in SSE 0.5 mph 2.0 mph 74 % 0.00 in
21:59 74.3 °F 65.5 °F 29.85 in South 0.3 mph 1.2 mph 74 % 0.00 in
22:04 74.3 °F 65.5 °F 29.85 in SSE 0.8 mph 2.3 mph 74 % 0.00 in
22:09 74.2 °F 65.8 °F 29.85 in South 2.2 mph 3.5 mph 75 % 0.00 in
22:14 74.2 °F 65.8 °F 29.85 in SE 0.7 mph 2.3 mph 75 % 0.00 in
22:19 74.2 °F 65.8 °F 29.85 in SSE 1.8 mph 3.5 mph 75 % 0.00 in
22:24 74.2 °F 65.8 °F 29.84 in South 0.3 mph 2.3 mph 75 % 0.00 in
22:30 74.2 °F 65.8 °F 29.84 in SSW 1.6 mph 3.5 mph 75 % 0.00 in
22:35 74.1 °F 66.0 °F 29.84 in SE 2.4 mph 3.0 mph 76 % 0.00 in
22:40 74.1 °F 66.0 °F 29.85 in SE 1.3 mph 3.5 mph 76 % 0.00 in
22:45 74.1 °F 66.0 °F 29.85 in SW 0.7 mph 2.3 mph 76 % 0.00 in
22:50 74.0 °F 66.0 °F 29.84 in SE 0.4 mph 2.3 mph 76 % 0.00 in
22:55 73.9 °F 66.2 °F 29.84 in South 1.2 mph 3.5 mph 77 % 0.00 in
23:00 73.9 °F 66.2 °F 29.84 in South 0.9 mph 2.3 mph 77 % 0.00 in
23:05 73.8 °F 66.1 °F 29.84 in South 0.2 mph 2.0 mph 77 % 0.00 in
23:10 73.8 °F 66.1 °F 29.84 in WSW 0.6 mph 2.3 mph 77 % 0.00 in
23:15 73.7 °F 66.4 °F 29.83 in SSW 0.7 mph 1.2 mph 78 % 0.00 in
23:21 73.7 °F 66.4 °F 29.84 in Calm   7.0 mph 78 % 0.00 in
23:26 73.6 °F 66.3 °F 29.83 in SSW 1.0 mph 3.0 mph 78 % 0.00 in
23:31 73.5 °F 66.6 °F 29.84 in SSW 1.0 mph 3.0 mph 79 % 0.00 in
23:36 73.5 °F 66.6 °F 29.84 in SW 1.0 mph 5.0 mph 79 % 0.00 in
23:41 73.4 °F 66.5 °F 29.83 in Calm   2.0 mph 79 % 0.00 in
23:46 73.4 °F 66.5 °F 29.83 in SW 1.0 mph 2.0 mph 79 % 0.00 in
23:51 73.3 °F 66.4 °F 29.84 in Calm   3.0 mph 79 % 0.00 in
23:56 73.3 °F 66.4 °F 29.83 in SSW 1.0 mph 5.0 mph 79 % 0.00 in
Crab Meadow Weather
Compliments of Weather Underground - 2.75 mb

Script developed by  Jim McMurry - jmcmurry@mwt.net Adapted for the template by  Wim van der Kuil - Leuven-Template.eu

Extremes: Currently the driest state is Nevada with an annual rainfall of only nine inches.